sensor_id;sensor_type;location;lat;lon;timestamp;P1;durP1;ratioP1;P2;durP2;ratioP2
11431;SDS011;5772;50.940;6.782;2024-03-17T00:01:31;26.63;;;25.27;;
11431;SDS011;5772;50.940;6.782;2024-03-17T00:03:58;28.93;;;27.23;;
11431;SDS011;5772;50.940;6.782;2024-03-17T00:06:23;28.13;;;26.63;;
11431;SDS011;5772;50.940;6.782;2024-03-17T00:08:48;27.10;;;25.70;;
11431;SDS011;5772;50.940;6.782;2024-03-17T00:11:14;28.87;;;27.13;;
11431;SDS011;5772;50.940;6.782;2024-03-17T00:13:39;29.30;;;27.53;;
11431;SDS011;5772;50.940;6.782;2024-03-17T00:16:05;27.40;;;26.00;;
11431;SDS011;5772;50.940;6.782;2024-03-17T00:18:30;27.47;;;25.97;;
11431;SDS011;5772;50.940;6.782;2024-03-17T00:20:57;26.10;;;24.80;;
11431;SDS011;5772;50.940;6.782;2024-03-17T00:23:22;26.50;;;24.80;;
11431;SDS011;5772;50.940;6.782;2024-03-17T00:25:48;27.37;;;25.97;;
11431;SDS011;5772;50.940;6.782;2024-03-17T00:28:13;30.03;;;28.13;;
11431;SDS011;5772;50.940;6.782;2024-03-17T00:30:39;28.50;;;26.90;;
11431;SDS011;5772;50.940;6.782;2024-03-17T00:33:04;28.17;;;26.47;;
11431;SDS011;5772;50.940;6.782;2024-03-17T00:35:29;30.33;;;28.67;;
11431;SDS011;5772;50.940;6.782;2024-03-17T00:37:56;29.83;;;28.33;;
11431;SDS011;5772;50.940;6.782;2024-03-17T00:40:21;28.07;;;26.23;;
11431;SDS011;5772;50.940;6.782;2024-03-17T00:42:47;26.87;;;25.50;;
11431;SDS011;5772;50.940;6.782;2024-03-17T00:45:12;27.77;;;26.03;;
11431;SDS011;5772;50.940;6.782;2024-03-17T00:47:38;28.77;;;27.20;;
11431;SDS011;5772;50.940;6.782;2024-03-17T00:50:04;29.73;;;28.03;;
11431;SDS011;5772;50.940;6.782;2024-03-17T00:52:30;29.30;;;27.80;;
11431;SDS011;5772;50.940;6.782;2024-03-17T00:54:57;28.13;;;26.53;;
11431;SDS011;5772;50.940;6.782;2024-03-17T00:57:22;28.63;;;27.03;;
11431;SDS011;5772;50.940;6.782;2024-03-17T00:59:47;27.73;;;26.13;;
11431;SDS011;5772;50.940;6.782;2024-03-17T01:02:13;27.63;;;26.10;;
11431;SDS011;5772;50.940;6.782;2024-03-17T01:04:39;27.77;;;25.93;;
11431;SDS011;5772;50.940;6.782;2024-03-17T01:07:05;30.37;;;28.67;;
11431;SDS011;5772;50.940;6.782;2024-03-17T01:09:31;27.90;;;26.50;;
11431;SDS011;5772;50.940;6.782;2024-03-17T01:11:57;28.53;;;27.03;;
11431;SDS011;5772;50.940;6.782;2024-03-17T01:14:23;29.70;;;28.10;;
11431;SDS011;5772;50.940;6.782;2024-03-17T01:16:50;31.30;;;29.50;;
11431;SDS011;5772;50.940;6.782;2024-03-17T01:19:15;28.00;;;26.30;;
11431;SDS011;5772;50.940;6.782;2024-03-17T01:21:40;31.80;;;30.10;;
11431;SDS011;5772;50.940;6.782;2024-03-17T01:24:06;29.53;;;28.00;;
11431;SDS011;5772;50.940;6.782;2024-03-17T01:26:31;30.30;;;28.73;;
11431;SDS011;5772;50.940;6.782;2024-03-17T01:28:58;29.00;;;27.33;;
11431;SDS011;5772;50.940;6.782;2024-03-17T01:31:23;30.43;;;28.53;;
11431;SDS011;5772;50.940;6.782;2024-03-17T01:33:49;28.30;;;26.73;;
11431;SDS011;5772;50.940;6.782;2024-03-17T01:36:14;29.57;;;27.77;;
11431;SDS011;5772;50.940;6.782;2024-03-17T01:38:39;30.07;;;28.30;;
11431;SDS011;5772;50.940;6.782;2024-03-17T01:41:05;29.83;;;28.17;;
11431;SDS011;5772;50.940;6.782;2024-03-17T01:43:30;30.13;;;28.33;;
11431;SDS011;5772;50.940;6.782;2024-03-17T01:45:57;31.30;;;29.60;;
11431;SDS011;5772;50.940;6.782;2024-03-17T01:48:23;30.73;;;28.93;;
11431;SDS011;5772;50.940;6.782;2024-03-17T01:50:49;30.37;;;28.57;;
11431;SDS011;5772;50.940;6.782;2024-03-17T01:53:17;28.83;;;27.23;;
11431;SDS011;5772;50.940;6.782;2024-03-17T01:55:43;30.53;;;28.93;;
11431;SDS011;5772;50.940;6.782;2024-03-17T01:58:09;29.43;;;27.67;;
11431;SDS011;5772;50.940;6.782;2024-03-17T02:00:35;29.73;;;28.10;;
11431;SDS011;5772;50.940;6.782;2024-03-17T02:03:01;30.57;;;28.97;;
11431;SDS011;5772;50.940;6.782;2024-03-17T02:05:27;31.27;;;29.67;;
11431;SDS011;5772;50.940;6.782;2024-03-17T02:07:52;30.73;;;28.93;;
11431;SDS011;5772;50.940;6.782;2024-03-17T02:10:18;32.67;;;30.73;;
11431;SDS011;5772;50.940;6.782;2024-03-17T02:12:43;28.53;;;26.77;;
11431;SDS011;5772;50.940;6.782;2024-03-17T02:15:09;30.10;;;28.40;;
11431;SDS011;5772;50.940;6.782;2024-03-17T02:17:34;30.17;;;28.37;;
11431;SDS011;5772;50.940;6.782;2024-03-17T02:20:01;29.40;;;27.80;;
11431;SDS011;5772;50.940;6.782;2024-03-17T02:22:27;29.00;;;27.50;;
11431;SDS011;5772;50.940;6.782;2024-03-17T02:24:53;28.13;;;26.73;;
11431;SDS011;5772;50.940;6.782;2024-03-17T02:27:18;28.10;;;26.60;;
11431;SDS011;5772;50.940;6.782;2024-03-17T02:29:44;26.83;;;25.17;;
11431;SDS011;5772;50.940;6.782;2024-03-17T02:32:09;27.80;;;26.30;;
11431;SDS011;5772;50.940;6.782;2024-03-17T02:34:34;26.67;;;25.27;;
11431;SDS011;5772;50.940;6.782;2024-03-17T02:37:00;27.70;;;26.30;;
11431;SDS011;5772;50.940;6.782;2024-03-17T02:39:27;28.37;;;26.67;;
11431;SDS011;5772;50.940;6.782;2024-03-17T02:41:52;28.03;;;26.53;;
11431;SDS011;5772;50.940;6.782;2024-03-17T02:44:18;28.67;;;27.20;;
11431;SDS011;5772;50.940;6.782;2024-03-17T02:46:43;27.03;;;25.63;;
11431;SDS011;5772;50.940;6.782;2024-03-17T02:49:08;29.00;;;27.60;;
11431;SDS011;5772;50.940;6.782;2024-03-17T02:51:34;25.73;;;24.47;;
11431;SDS011;5772;50.940;6.782;2024-03-17T02:53:59;28.67;;;27.17;;
11431;SDS011;5772;50.940;6.782;2024-03-17T02:56:26;29.17;;;27.57;;
11431;SDS011;5772;50.940;6.782;2024-03-17T02:58:51;27.83;;;26.47;;
11431;SDS011;5772;50.940;6.782;2024-03-17T03:01:17;27.17;;;25.77;;
11431;SDS011;5772;50.940;6.782;2024-03-17T03:03:42;26.97;;;25.53;;
11431;SDS011;5772;50.940;6.782;2024-03-17T03:06:07;28.00;;;26.67;;
11431;SDS011;5772;50.940;6.782;2024-03-17T03:08:33;27.33;;;25.93;;
11431;SDS011;5772;50.940;6.782;2024-03-17T03:10:58;29.77;;;28.23;;
11431;SDS011;5772;50.940;6.782;2024-03-17T03:13:25;29.20;;;27.80;;
11431;SDS011;5772;50.940;6.782;2024-03-17T03:15:50;27.50;;;26.17;;
11431;SDS011;5772;50.940;6.782;2024-03-17T03:18:16;26.20;;;25.00;;
11431;SDS011;5772;50.940;6.782;2024-03-17T03:20:42;28.00;;;26.63;;
11431;SDS011;5772;50.940;6.782;2024-03-17T03:23:07;29.60;;;28.13;;
11431;SDS011;5772;50.940;6.782;2024-03-17T03:25:32;31.87;;;30.17;;
11431;SDS011;5772;50.940;6.782;2024-03-17T03:27:58;30.47;;;28.87;;
11431;SDS011;5772;50.940;6.782;2024-03-17T03:30:24;30.07;;;28.57;;
11431;SDS011;5772;50.940;6.782;2024-03-17T03:32:50;30.47;;;28.83;;
11431;SDS011;5772;50.940;6.782;2024-03-17T03:35:15;32.80;;;31.20;;
11431;SDS011;5772;50.940;6.782;2024-03-17T03:37:41;32.67;;;30.97;;
11431;SDS011;5772;50.940;6.782;2024-03-17T03:40:07;30.90;;;29.40;;
11431;SDS011;5772;50.940;6.782;2024-03-17T03:42:32;33.60;;;31.90;;
11431;SDS011;5772;50.940;6.782;2024-03-17T03:44:58;33.13;;;31.47;;
11431;SDS011;5772;50.940;6.782;2024-03-17T03:47:24;32.00;;;30.50;;
11431;SDS011;5772;50.940;6.782;2024-03-17T03:49:50;32.03;;;30.27;;
11431;SDS011;5772;50.940;6.782;2024-03-17T03:52:15;32.67;;;31.17;;
11431;SDS011;5772;50.940;6.782;2024-03-17T03:54:40;32.10;;;30.33;;
11431;SDS011;5772;50.940;6.782;2024-03-17T03:57:06;33.10;;;31.40;;
11431;SDS011;5772;50.940;6.782;2024-03-17T03:59:31;32.43;;;30.73;;
11431;SDS011;5772;50.940;6.782;2024-03-17T04:01:56;30.47;;;28.87;;
11431;SDS011;5772;50.940;6.782;2024-03-17T04:04:23;32.47;;;30.90;;
11431;SDS011;5772;50.940;6.782;2024-03-17T04:06:48;29.97;;;28.57;;
11431;SDS011;5772;50.940;6.782;2024-03-17T04:09:14;29.53;;;28.07;;
11431;SDS011;5772;50.940;6.782;2024-03-17T04:11:39;30.03;;;28.70;;
11431;SDS011;5772;50.940;6.782;2024-03-17T04:14:05;30.30;;;28.90;;
11431;SDS011;5772;50.940;6.782;2024-03-17T04:16:30;28.13;;;26.73;;
11431;SDS011;5772;50.940;6.782;2024-03-17T04:18:55;29.17;;;27.77;;
11431;SDS011;5772;50.940;6.782;2024-03-17T04:21:22;27.67;;;26.13;;
11431;SDS011;5772;50.940;6.782;2024-03-17T04:23:47;29.27;;;27.57;;
11431;SDS011;5772;50.940;6.782;2024-03-17T04:26:13;28.37;;;26.87;;
11431;SDS011;5772;50.940;6.782;2024-03-17T04:28:38;27.73;;;26.43;;
11431;SDS011;5772;50.940;6.782;2024-03-17T04:31:04;25.43;;;24.23;;
11431;SDS011;5772;50.940;6.782;2024-03-17T04:33:29;28.77;;;27.17;;
11431;SDS011;5772;50.940;6.782;2024-03-17T04:35:55;25.10;;;23.90;;
11431;SDS011;5772;50.940;6.782;2024-03-17T04:38:22;26.67;;;25.17;;
11431;SDS011;5772;50.940;6.782;2024-03-17T04:40:47;27.00;;;25.60;;
11431;SDS011;5772;50.940;6.782;2024-03-17T04:43:13;27.80;;;26.37;;
11431;SDS011;5772;50.940;6.782;2024-03-17T04:45:38;26.97;;;25.67;;
11431;SDS011;5772;50.940;6.782;2024-03-17T04:48:04;25.03;;;23.57;;
11431;SDS011;5772;50.940;6.782;2024-03-17T04:50:29;26.17;;;24.87;;
11431;SDS011;5772;50.940;6.782;2024-03-17T04:52:55;27.47;;;26.07;;
11431;SDS011;5772;50.940;6.782;2024-03-17T04:55:21;25.53;;;24.23;;
11431;SDS011;5772;50.940;6.782;2024-03-17T04:57:47;26.63;;;25.13;;
11431;SDS011;5772;50.940;6.782;2024-03-17T05:00:12;24.53;;;23.33;;
11431;SDS011;5772;50.940;6.782;2024-03-17T05:02:38;25.73;;;24.43;;
11431;SDS011;5772;50.940;6.782;2024-03-17T05:05:04;24.80;;;23.60;;
11431;SDS011;5772;50.940;6.782;2024-03-17T05:07:30;26.30;;;24.87;;
11431;SDS011;5772;50.940;6.782;2024-03-17T05:09:55;25.50;;;24.20;;
11431;SDS011;5772;50.940;6.782;2024-03-17T05:12:22;28.10;;;26.53;;
11431;SDS011;5772;50.940;6.782;2024-03-17T05:14:47;29.00;;;27.50;;
11431;SDS011;5772;50.940;6.782;2024-03-17T05:17:12;29.87;;;28.47;;
11431;SDS011;5772;50.940;6.782;2024-03-17T05:19:38;28.97;;;27.20;;
11431;SDS011;5772;50.940;6.782;2024-03-17T05:22:03;28.23;;;26.80;;
11431;SDS011;5772;50.940;6.782;2024-03-17T05:24:29;30.37;;;28.97;;
11431;SDS011;5772;50.940;6.782;2024-03-17T05:26:54;30.30;;;28.83;;
11431;SDS011;5772;50.940;6.782;2024-03-17T05:29:21;30.37;;;28.77;;
11431;SDS011;5772;50.940;6.782;2024-03-17T05:31:46;30.13;;;28.47;;
11431;SDS011;5772;50.940;6.782;2024-03-17T05:34:11;30.80;;;29.30;;
11431;SDS011;5772;50.940;6.782;2024-03-17T05:36:37;32.57;;;30.97;;
11431;SDS011;5772;50.940;6.782;2024-03-17T05:39:02;30.30;;;28.80;;
11431;SDS011;5772;50.940;6.782;2024-03-17T05:41:28;32.80;;;31.17;;
11431;SDS011;5772;50.940;6.782;2024-03-17T05:43:53;32.13;;;30.43;;
11431;SDS011;5772;50.940;6.782;2024-03-17T05:46:20;33.77;;;32.07;;
11431;SDS011;5772;50.940;6.782;2024-03-17T05:48:45;33.57;;;32.03;;
11431;SDS011;5772;50.940;6.782;2024-03-17T05:51:11;35.37;;;33.30;;
11431;SDS011;5772;50.940;6.782;2024-03-17T05:53:37;34.80;;;33.10;;
11431;SDS011;5772;50.940;6.782;2024-03-17T05:56:03;34.80;;;33.10;;
11431;SDS011;5772;50.940;6.782;2024-03-17T05:58:29;34.33;;;32.63;;
11431;SDS011;5772;50.940;6.782;2024-03-17T06:00:54;35.50;;;33.80;;
11431;SDS011;5772;50.940;6.782;2024-03-17T06:03:21;34.23;;;32.57;;
11431;SDS011;5772;50.940;6.782;2024-03-17T06:05:47;38.33;;;36.40;;
11431;SDS011;5772;50.940;6.782;2024-03-17T06:08:13;1346.30;;;679.00;;
11431;SDS011;5772;50.940;6.782;2024-03-17T06:10:42;1346.03;;;678.77;;
11431;SDS011;5772;50.940;6.782;2024-03-17T06:13:08;1999.90;;;999.90;;
11431;SDS011;5772;50.940;6.782;2024-03-17T06:15:33;1999.90;;;999.90;;
11431;SDS011;5772;50.940;6.782;2024-03-17T06:17:59;1999.90;;;999.90;;
11431;SDS011;5772;50.940;6.782;2024-03-17T06:20:26;1999.90;;;999.90;;
11431;SDS011;5772;50.940;6.782;2024-03-17T06:22:51;1999.90;;;999.90;;
11431;SDS011;5772;50.940;6.782;2024-03-17T06:25:16;1999.90;;;999.90;;
11431;SDS011;5772;50.940;6.782;2024-03-17T06:27:42;1999.90;;;999.90;;
11431;SDS011;5772;50.940;6.782;2024-03-17T06:30:10;1999.90;;;999.90;;
11431;SDS011;5772;50.940;6.782;2024-03-17T06:32:37;1999.90;;;999.90;;
11431;SDS011;5772;50.940;6.782;2024-03-17T06:35:02;1999.90;;;999.90;;
11431;SDS011;5772;50.940;6.782;2024-03-17T06:37:29;27.03;;;25.73;;
11431;SDS011;5772;50.940;6.782;2024-03-17T06:39:54;29.57;;;28.17;;
11431;SDS011;5772;50.940;6.782;2024-03-17T06:42:20;27.97;;;26.67;;
11431;SDS011;5772;50.940;6.782;2024-03-17T06:44:45;26.50;;;25.17;;
11431;SDS011;5772;50.940;6.782;2024-03-17T06:47:10;24.97;;;23.70;;
11431;SDS011;5772;50.940;6.782;2024-03-17T06:49:36;24.40;;;23.10;;
11431;SDS011;5772;50.940;6.782;2024-03-17T06:52:01;24.83;;;23.60;;
11431;SDS011;5772;50.940;6.782;2024-03-17T06:54:28;28.70;;;27.37;;
11431;SDS011;5772;50.940;6.782;2024-03-17T06:56:53;34.67;;;32.97;;
11431;SDS011;5772;50.940;6.782;2024-03-17T06:59:19;33.77;;;32.20;;
11431;SDS011;5772;50.940;6.782;2024-03-17T07:01:44;33.57;;;31.90;;
11431;SDS011;5772;50.940;6.782;2024-03-17T07:04:10;31.93;;;30.40;;
11431;SDS011;5772;50.940;6.782;2024-03-17T07:06:36;27.23;;;25.80;;
11431;SDS011;5772;50.940;6.782;2024-03-17T07:09:01;25.67;;;24.47;;
11431;SDS011;5772;50.940;6.782;2024-03-17T07:11:28;25.03;;;23.63;;
11431;SDS011;5772;50.940;6.782;2024-03-17T07:13:53;21.97;;;20.77;;
11431;SDS011;5772;50.940;6.782;2024-03-17T07:16:19;21.60;;;20.60;;
11431;SDS011;5772;50.940;6.782;2024-03-17T07:18:44;22.47;;;21.37;;
11431;SDS011;5772;50.940;6.782;2024-03-17T07:21:10;22.93;;;21.73;;
11431;SDS011;5772;50.940;6.782;2024-03-17T07:23:35;26.10;;;24.60;;
11431;SDS011;5772;50.940;6.782;2024-03-17T07:26:01;23.30;;;22.23;;
11431;SDS011;5772;50.940;6.782;2024-03-17T07:28:28;21.90;;;20.90;;
11431;SDS011;5772;50.940;6.782;2024-03-17T07:30:54;20.17;;;19.17;;
11431;SDS011;5772;50.940;6.782;2024-03-17T07:33:20;20.37;;;19.27;;
11431;SDS011;5772;50.940;6.782;2024-03-17T07:35:47;19.30;;;18.37;;
11431;SDS011;5772;50.940;6.782;2024-03-17T07:38:13;20.03;;;18.83;;
11431;SDS011;5772;50.940;6.782;2024-03-17T07:40:38;19.40;;;18.40;;
11431;SDS011;5772;50.940;6.782;2024-03-17T07:43:03;19.60;;;18.60;;
11431;SDS011;5772;50.940;6.782;2024-03-17T07:45:30;19.23;;;18.17;;
11431;SDS011;5772;50.940;6.782;2024-03-17T07:47:55;20.30;;;19.10;;
11431;SDS011;5772;50.940;6.782;2024-03-17T07:50:21;19.63;;;18.73;;
11431;SDS011;5772;50.940;6.782;2024-03-17T07:52:46;18.60;;;17.63;;
11431;SDS011;5772;50.940;6.782;2024-03-17T07:55:12;18.37;;;17.47;;
11431;SDS011;5772;50.940;6.782;2024-03-17T07:57:37;19.17;;;18.07;;
11431;SDS011;5772;50.940;6.782;2024-03-17T08:00:03;19.47;;;18.37;;
11431;SDS011;5772;50.940;6.782;2024-03-17T08:02:30;19.23;;;18.33;;
11431;SDS011;5772;50.940;6.782;2024-03-17T08:04:55;19.47;;;18.47;;
11431;SDS011;5772;50.940;6.782;2024-03-17T08:07:20;19.23;;;18.03;;
11431;SDS011;5772;50.940;6.782;2024-03-17T08:09:46;19.10;;;18.20;;
11431;SDS011;5772;50.940;6.782;2024-03-17T08:12:11;20.27;;;19.17;;
11431;SDS011;5772;50.940;6.782;2024-03-17T08:14:37;19.83;;;18.87;;
11431;SDS011;5772;50.940;6.782;2024-03-17T08:17:02;19.80;;;18.80;;
11431;SDS011;5772;50.940;6.782;2024-03-17T08:19:29;18.23;;;17.40;;
11431;SDS011;5772;50.940;6.782;2024-03-17T08:21:54;19.57;;;18.67;;
11431;SDS011;5772;50.940;6.782;2024-03-17T08:24:19;20.87;;;19.67;;
11431;SDS011;5772;50.940;6.782;2024-03-17T08:26:45;21.07;;;20.07;;
11431;SDS011;5772;50.940;6.782;2024-03-17T08:29:10;18.87;;;17.97;;
11431;SDS011;5772;50.940;6.782;2024-03-17T08:31:36;20.23;;;19.23;;
11431;SDS011;5772;50.940;6.782;2024-03-17T08:34:01;20.57;;;19.57;;
11431;SDS011;5772;50.940;6.782;2024-03-17T08:36:28;20.90;;;20.00;;
11431;SDS011;5772;50.940;6.782;2024-03-17T08:38:53;20.40;;;19.37;;
11431;SDS011;5772;50.940;6.782;2024-03-17T08:41:18;21.20;;;19.97;;
11431;SDS011;5772;50.940;6.782;2024-03-17T08:43:44;20.13;;;19.13;;
11431;SDS011;5772;50.940;6.782;2024-03-17T08:46:10;21.20;;;20.20;;
11431;SDS011;5772;50.940;6.782;2024-03-17T08:48:36;22.50;;;21.30;;
11431;SDS011;5772;50.940;6.782;2024-03-17T08:51:03;21.67;;;20.73;;
11431;SDS011;5772;50.940;6.782;2024-03-17T08:53:30;22.57;;;21.40;;
11431;SDS011;5772;50.940;6.782;2024-03-17T08:55:56;20.83;;;19.83;;
11431;SDS011;5772;50.940;6.782;2024-03-17T08:58:22;21.13;;;20.13;;
11431;SDS011;5772;50.940;6.782;2024-03-17T09:00:47;21.50;;;20.23;;
11431;SDS011;5772;50.940;6.782;2024-03-17T09:03:13;20.93;;;19.83;;
11431;SDS011;5772;50.940;6.782;2024-03-17T09:05:39;21.83;;;20.63;;
11431;SDS011;5772;50.940;6.782;2024-03-17T09:08:07;21.97;;;20.80;;
11431;SDS011;5772;50.940;6.782;2024-03-17T09:10:38;20.23;;;19.33;;
11431;SDS011;5772;50.940;6.782;2024-03-17T09:13:04;20.27;;;19.23;;
11431;SDS011;5772;50.940;6.782;2024-03-17T09:15:29;20.70;;;19.70;;
11431;SDS011;5772;50.940;6.782;2024-03-17T09:17:54;21.87;;;20.87;;
11431;SDS011;5772;50.940;6.782;2024-03-17T09:20:20;22.33;;;21.23;;
11431;SDS011;5772;50.940;6.782;2024-03-17T09:22:45;22.77;;;21.77;;
11431;SDS011;5772;50.940;6.782;2024-03-17T09:25:11;22.30;;;21.00;;
11431;SDS011;5772;50.940;6.782;2024-03-17T09:27:37;22.13;;;21.03;;
11431;SDS011;5772;50.940;6.782;2024-03-17T09:30:03;22.43;;;21.33;;
11431;SDS011;5772;50.940;6.782;2024-03-17T09:32:28;23.63;;;21.83;;
11431;SDS011;5772;50.940;6.782;2024-03-17T09:34:54;21.63;;;20.63;;
11431;SDS011;5772;50.940;6.782;2024-03-17T09:37:19;22.27;;;21.17;;
11431;SDS011;5772;50.940;6.782;2024-03-17T09:39:46;21.30;;;20.30;;
11431;SDS011;5772;50.940;6.782;2024-03-17T09:42:16;22.13;;;21.03;;
11431;SDS011;5772;50.940;6.782;2024-03-17T09:44:43;22.53;;;21.33;;
11431;SDS011;5772;50.940;6.782;2024-03-17T09:47:10;24.43;;;23.27;;
11431;SDS011;5772;50.940;6.782;2024-03-17T09:49:41;23.00;;;21.90;;
11431;SDS011;5772;50.940;6.782;2024-03-17T09:52:06;21.63;;;20.63;;
11431;SDS011;5772;50.940;6.782;2024-03-17T09:54:40;21.10;;;20.07;;
11431;SDS011;5772;50.940;6.782;2024-03-17T09:57:06;22.93;;;21.73;;
11431;SDS011;5772;50.940;6.782;2024-03-17T09:59:34;22.80;;;21.57;;
11431;SDS011;5772;50.940;6.782;2024-03-17T10:02:00;21.50;;;20.40;;
11431;SDS011;5772;50.940;6.782;2024-03-17T10:04:31;21.53;;;20.50;;
11431;SDS011;5772;50.940;6.782;2024-03-17T10:06:57;21.90;;;20.63;;
11431;SDS011;5772;50.940;6.782;2024-03-17T10:09:22;20.93;;;19.93;;
11431;SDS011;5772;50.940;6.782;2024-03-17T10:11:47;22.47;;;21.37;;
11431;SDS011;5772;50.940;6.782;2024-03-17T10:14:15;22.30;;;21.20;;
11431;SDS011;5772;50.940;6.782;2024-03-17T10:16:41;22.10;;;21.00;;
11431;SDS011;5772;50.940;6.782;2024-03-17T10:19:09;22.10;;;21.00;;
11431;SDS011;5772;50.940;6.782;2024-03-17T10:21:36;21.90;;;20.90;;
11431;SDS011;5772;50.940;6.782;2024-03-17T10:24:06;21.67;;;20.47;;
11431;SDS011;5772;50.940;6.782;2024-03-17T10:26:32;21.40;;;20.40;;
11431;SDS011;5772;50.940;6.782;2024-03-17T10:29:00;20.20;;;19.20;;
11431;SDS011;5772;50.940;6.782;2024-03-17T10:31:26;22.20;;;21.20;;
11431;SDS011;5772;50.940;6.782;2024-03-17T10:34:00;23.10;;;21.90;;
11431;SDS011;5772;50.940;6.782;2024-03-17T10:36:27;22.37;;;21.30;;
11431;SDS011;5772;50.940;6.782;2024-03-17T10:38:53;24.07;;;22.93;;
11431;SDS011;5772;50.940;6.782;2024-03-17T10:41:18;24.70;;;23.50;;
11431;SDS011;5772;50.940;6.782;2024-03-17T10:43:44;21.07;;;20.07;;
11431;SDS011;5772;50.940;6.782;2024-03-17T10:46:09;20.07;;;19.17;;
11431;SDS011;5772;50.940;6.782;2024-03-17T10:48:35;21.60;;;20.50;;
11431;SDS011;5772;50.940;6.782;2024-03-17T10:51:01;22.20;;;21.10;;
11431;SDS011;5772;50.940;6.782;2024-03-17T10:53:29;21.40;;;20.33;;
11431;SDS011;5772;50.940;6.782;2024-03-17T10:55:56;21.60;;;20.43;;
11431;SDS011;5772;50.940;6.782;2024-03-17T10:58:30;22.87;;;21.77;;
11431;SDS011;5772;50.940;6.782;2024-03-17T11:00:59;22.37;;;21.37;;
11431;SDS011;5772;50.940;6.782;2024-03-17T11:03:26;22.20;;;21.13;;
11431;SDS011;5772;50.940;6.782;2024-03-17T11:05:51;20.23;;;19.30;;
11431;SDS011;5772;50.940;6.782;2024-03-17T11:08:17;19.83;;;18.92;;
11431;SDS011;5772;50.940;6.782;2024-03-17T11:10:50;19.75;;;18.90;;
11431;SDS011;5772;50.940;6.782;2024-03-17T11:13:22;18.05;;;16.98;;
11431;SDS011;5772;50.940;6.782;2024-03-17T11:15:48;20.35;;;19.25;;
11431;SDS011;5772;50.940;6.782;2024-03-17T11:18:31;17.48;;;16.67;;
11431;SDS011;5772;50.940;6.782;2024-03-17T11:21:01;20.48;;;19.27;;
11431;SDS011;5772;50.940;6.782;2024-03-17T11:23:28;20.23;;;19.13;;
11431;SDS011;5772;50.940;6.782;2024-03-17T11:25:56;20.63;;;19.42;;
11431;SDS011;5772;50.940;6.782;2024-03-17T11:34:26;20.67;;;19.67;;
11431;SDS011;5772;50.940;6.782;2024-03-17T11:36:55;19.63;;;18.63;;
11431;SDS011;5772;50.940;6.782;2024-03-17T11:39:21;20.83;;;19.88;;
11431;SDS011;5772;50.940;6.782;2024-03-17T11:42:18;19.23;;;18.33;;
11431;SDS011;5772;50.940;6.782;2024-03-17T11:44:43;20.85;;;19.85;;
11431;SDS011;5772;50.940;6.782;2024-03-17T11:47:19;23.02;;;21.48;;
11431;SDS011;5772;50.940;6.782;2024-03-17T11:49:45;20.67;;;19.63;;
11431;SDS011;5772;50.940;6.782;2024-03-17T11:52:11;19.27;;;18.37;;
11431;SDS011;5772;50.940;6.782;2024-03-17T11:54:39;19.13;;;18.27;;
11431;SDS011;5772;50.940;6.782;2024-03-17T11:57:05;21.50;;;20.20;;
11431;SDS011;5772;50.940;6.782;2024-03-17T11:59:33;20.43;;;19.37;;
11431;SDS011;5772;50.940;6.782;2024-03-17T12:01:59;21.90;;;20.47;;
11431;SDS011;5772;50.940;6.782;2024-03-17T12:04:25;23.53;;;22.30;;
11431;SDS011;5772;50.940;6.782;2024-03-17T12:06:50;22.47;;;21.43;;
11431;SDS011;5772;50.940;6.782;2024-03-17T12:09:18;22.50;;;21.43;;
11431;SDS011;5772;50.940;6.782;2024-03-17T12:11:44;22.47;;;21.37;;
11431;SDS011;5772;50.940;6.782;2024-03-17T12:14:12;21.03;;;20.03;;
11431;SDS011;5772;50.940;6.782;2024-03-17T12:16:47;21.03;;;19.93;;
11431;SDS011;5772;50.940;6.782;2024-03-17T12:19:13;20.10;;;18.97;;
11431;SDS011;5772;50.940;6.782;2024-03-17T12:21:40;21.43;;;20.30;;
11431;SDS011;5772;50.940;6.782;2024-03-17T12:24:07;21.73;;;20.73;;
11431;SDS011;5772;50.940;6.782;2024-03-17T12:26:41;22.33;;;21.03;;
11431;SDS011;5772;50.940;6.782;2024-03-17T12:29:20;22.93;;;21.90;;
11431;SDS011;5772;50.940;6.782;2024-03-17T12:31:49;21.77;;;20.70;;
11431;SDS011;5772;50.940;6.782;2024-03-17T12:34:15;23.10;;;21.67;;
11431;SDS011;5772;50.940;6.782;2024-03-17T12:36:40;24.20;;;23.00;;
11431;SDS011;5772;50.940;6.782;2024-03-17T12:39:15;22.73;;;21.43;;
11431;SDS011;5772;50.940;6.782;2024-03-17T12:41:42;23.83;;;22.60;;
11431;SDS011;5772;50.940;6.782;2024-03-17T12:44:08;22.33;;;21.13;;
11431;SDS011;5772;50.940;6.782;2024-03-17T12:46:46;21.63;;;20.60;;
11431;SDS011;5772;50.940;6.782;2024-03-17T12:49:13;24.33;;;23.23;;
11431;SDS011;5772;50.940;6.782;2024-03-17T12:51:38;21.97;;;20.97;;
11431;SDS011;5772;50.940;6.782;2024-03-17T12:54:12;22.33;;;21.23;;
11431;SDS011;5772;50.940;6.782;2024-03-17T12:56:38;24.40;;;23.00;;
11431;SDS011;5772;50.940;6.782;2024-03-17T12:59:05;23.37;;;22.17;;
11431;SDS011;5772;50.940;6.782;2024-03-17T13:01:30;23.53;;;22.23;;
11431;SDS011;5772;50.940;6.782;2024-03-17T13:04:04;22.43;;;21.33;;
11431;SDS011;5772;50.940;6.782;2024-03-17T13:06:31;22.87;;;21.77;;
11431;SDS011;5772;50.940;6.782;2024-03-17T13:08:56;21.50;;;20.10;;
11431;SDS011;5772;50.940;6.782;2024-03-17T13:11:22;21.63;;;20.63;;
11431;SDS011;5772;50.940;6.782;2024-03-17T13:13:47;22.17;;;20.97;;
11431;SDS011;5772;50.940;6.782;2024-03-17T13:16:12;21.50;;;20.50;;
11431;SDS011;5772;50.940;6.782;2024-03-17T13:18:38;22.47;;;21.43;;
11431;SDS011;5772;50.940;6.782;2024-03-17T13:21:03;22.20;;;21.10;;
11431;SDS011;5772;50.940;6.782;2024-03-17T13:23:30;20.20;;;19.20;;
11431;SDS011;5772;50.940;6.782;2024-03-17T13:25:55;22.67;;;21.60;;
11431;SDS011;5772;50.940;6.782;2024-03-17T13:28:21;22.60;;;21.60;;
11431;SDS011;5772;50.940;6.782;2024-03-17T13:30:46;21.17;;;20.07;;
11431;SDS011;5772;50.940;6.782;2024-03-17T13:33:11;22.10;;;21.10;;
11431;SDS011;5772;50.940;6.782;2024-03-17T13:35:37;21.37;;;20.20;;
11431;SDS011;5772;50.940;6.782;2024-03-17T13:38:04;23.10;;;21.83;;
11431;SDS011;5772;50.940;6.782;2024-03-17T13:40:31;24.03;;;22.83;;
11431;SDS011;5772;50.940;6.782;2024-03-17T13:42:57;21.37;;;20.27;;
11431;SDS011;5772;50.940;6.782;2024-03-17T13:45:22;22.37;;;21.30;;
11431;SDS011;5772;50.940;6.782;2024-03-17T13:47:50;21.27;;;20.20;;
11431;SDS011;5772;50.940;6.782;2024-03-17T13:50:18;22.20;;;21.17;;
11431;SDS011;5772;50.940;6.782;2024-03-17T13:52:44;22.93;;;21.70;;
11431;SDS011;5772;50.940;6.782;2024-03-17T13:55:12;21.83;;;20.53;;
11431;SDS011;5772;50.940;6.782;2024-03-17T13:57:41;21.70;;;20.70;;
11431;SDS011;5772;50.940;6.782;2024-03-17T14:00:08;20.90;;;19.90;;
11431;SDS011;5772;50.940;6.782;2024-03-17T14:02:33;22.13;;;21.13;;
11431;SDS011;5772;50.940;6.782;2024-03-17T14:04:59;22.50;;;21.47;;
11431;SDS011;5772;50.940;6.782;2024-03-17T14:07:24;21.40;;;20.37;;
11431;SDS011;5772;50.940;6.782;2024-03-17T14:09:50;22.17;;;21.03;;
11431;SDS011;5772;50.940;6.782;2024-03-17T14:12:15;21.23;;;20.13;;
11431;SDS011;5772;50.940;6.782;2024-03-17T14:14:42;21.20;;;20.00;;
11431;SDS011;5772;50.940;6.782;2024-03-17T14:17:07;22.03;;;20.93;;
11431;SDS011;5772;50.940;6.782;2024-03-17T14:19:33;20.83;;;19.87;;
11431;SDS011;5772;50.940;6.782;2024-03-17T14:21:58;22.43;;;21.33;;
11431;SDS011;5772;50.940;6.782;2024-03-17T14:24:23;21.97;;;20.77;;
11431;SDS011;5772;50.940;6.782;2024-03-17T14:26:49;21.83;;;20.73;;
11431;SDS011;5772;50.940;6.782;2024-03-17T14:29:14;22.90;;;21.80;;
11431;SDS011;5772;50.940;6.782;2024-03-17T14:31:41;22.23;;;20.93;;
11431;SDS011;5772;50.940;6.782;2024-03-17T14:34:06;22.07;;;20.90;;